Time;durP1;ratioP1;P1;durP2;ratioP2;P2;SDS_P1;SDS_P2;PMS_P1;PMS_P2;Temp;Humidity;BMP_temperature;BMP_pressure;BME280_temperature;BME280_humidity;BME280_pressure;Samples;Min_cycle;Max_cycle;Signal;HPM_P1;HPM_P2
2022/09/06 00:00:17;;;;;;;3.10;1.40;;;;;;;12.00;59.79;99166.63;105197;1283;124113;-69
2022/09/06 00:02:57;;;;;;;4.00;1.60;;;;;;;11.96;59.75;99164.67;105313;1283;25243;-69
2022/09/06 00:05:23;;;;;;;4.00;1.40;;;;;;;11.93;60.04;99162.96;105404;1282;24229;-69
2022/09/06 00:07:50;;;;;;;7.30;1.90;;;;;;;11.91;60.51;99161.32;105344;1280;137837;-68
2022/09/06 00:10:17;;;;;;;2.20;1.60;;;;;;;11.89;60.64;99155.75;105455;1280;22637;-68
2022/09/06 00:12:44;;;;;;;4.60;1.60;;;;;;;11.87;60.77;99147.33;105313;1280;137413;-68
2022/09/06 00:15:11;;;;;;;3.10;1.60;;;;;;;11.85;60.72;99145.34;105588;1280;22583;-70
2022/09/06 00:17:39;;;;;;;3.30;1.70;;;;;;;11.84;60.85;99141.42;105516;1280;22535;-68
2022/09/06 00:20:08;;;;;;;2.80;1.60;;;;;;;11.82;60.79;99144.10;105286;1281;137223;-68
2022/09/06 00:22:36;;;;;;;2.60;1.60;;;;;;;11.80;61.21;99142.70;105475;1280;22559;-68
2022/09/06 00:25:05;;;;;;;2.80;1.80;;;;;;;11.77;60.96;99138.55;105348;1280;137787;-68
2022/09/06 00:27:32;;;;;;;;;;;;;;;11.76;60.94;99142.94;105506;1281;23007;-68
2022/09/06 00:29:59;;;;;;;3.80;1.60;;;;;;;11.74;60.93;99142.77;105305;1281;124434;-68
2022/09/06 00:32:26;;;;;;;3.00;1.50;;;;;;;11.73;61.07;99143.67;105368;1281;23963;-68
2022/09/06 00:34:53;;;;;;;2.60;1.80;;;;;;;11.71;61.57;99142.48;105455;1281;25376;-68
2022/09/06 00:37:20;;;;;;;3.40;1.70;;;;;;;11.69;61.21;99141.08;105327;1281;137872;-68
2022/09/06 00:39:47;;;;;;;2.90;1.40;;;;;;;11.68;61.11;99138.45;105380;1281;24380;-68
2022/09/06 00:42:14;;;;;;;2.70;1.40;;;;;;;11.66;61.12;99136.81;104004;1281;1684299;-68
2022/09/06 00:44:40;;;;;;;3.10;1.50;;;;;;;11.65;61.68;99136.41;105449;1281;25317;-68
2022/09/06 00:47:08;;;;;;;3.60;1.90;;;;;;;11.64;61.67;99141.55;105426;1281;25395;-68
2022/09/06 00:49:50;;;;;;;3.90;1.70;;;;;;;11.63;61.63;99140.10;105259;1281;137782;-68
2022/09/06 00:52:18;;;;;;;2.00;1.30;;;;;;;11.61;61.83;99138.55;105380;1281;24409;-68
2022/09/06 00:54:47;;;;;;;6.30;1.70;;;;;;;11.57;61.96;99140.08;105379;1281;137962;-68
2022/09/06 00:57:15;;;;;;;4.40;1.70;;;;;;;11.53;61.76;99139.92;105409;1281;25633;-68
2022/09/06 00:59:45;;;;;;;4.30;1.70;;;;;;;11.50;62.28;99143.06;105276;1281;137633;-68
2022/09/06 01:02:13;;;;;;;3.10;1.60;;;;;;;11.47;62.30;99142.55;105512;1281;23013;-68
2022/09/06 01:04:44;;;;;;;5.20;2.20;;;;;;;11.43;62.30;99144.90;105488;1280;22554;-67
2022/09/06 01:07:38;;;;;;;6.60;1.80;;;;;;;11.41;62.39;99144.13;105354;1281;138021;-68
2022/09/06 01:10:42;;;;;;;4.80;1.50;;;;;;;11.38;63.09;99147.83;105352;1282;24544;-68
2022/09/06 01:13:14;;;;;;;3.90;1.50;;;;;;;11.35;63.20;99147.86;105223;1283;138287;-68
2022/09/06 01:15:56;;;;;;;3.40;2.10;;;;;;;11.34;63.61;99146.96;105399;1283;22697;-68
2022/09/06 01:18:35;;;;;;;3.30;1.70;;;;;;;11.33;63.52;99142.04;105257;1283;138561;-68
2022/09/06 01:21:13;;;;;;;4.70;1.80;;;;;;;11.35;63.50;99142.97;105345;1283;25372;-68
2022/09/06 01:23:43;;;;;;;4.00;1.90;;;;;;;11.37;63.09;99139.03;105372;1282;23960;-68
2022/09/06 01:26:34;;;;;;;4.50;2.10;;;;;;;11.40;63.65;99135.94;105416;1283;25424;-68
2022/09/06 01:29:12;;;;;;;3.00;1.70;;;;;;;11.42;63.43;99133.30;104989;1283;30464;-68
2022/09/06 01:31:53;;;;;;;5.00;1.70;;;;;;;11.42;63.59;99131.57;105242;1283;138012;-68
2022/09/06 01:34:28;;;;;;;4.60;1.40;;;;;;;11.45;63.03;99132.83;105348;1283;23135;-68
2022/09/06 01:37:01;;;;;;;3.70;1.80;;;;;;;11.45;63.33;99132.04;105198;1283;138060;-68
2022/09/06 01:39:34;;;;;;;3.70;1.60;;;;;;;11.45;63.43;99129.94;105391;1281;31917;-68
2022/09/06 01:42:27;;;;;;;3.70;1.60;;;;;;;11.43;63.10;99128.27;105342;1281;137863;-68
2022/09/06 01:45:06;;;;;;;4.20;1.60;;;;;;;11.42;63.19;99126.38;105437;1281;22753;-68
2022/09/06 01:47:42;;;;;;;;;;;;;;;11.39;63.28;99124.58;105432;1281;22696;-67
2022/09/06 01:50:30;;;;;;;2.20;1.40;;;;;;;11.36;63.03;99123.73;105525;1280;22560;-68
2022/09/06 01:53:35;;;;;;;5.00;1.90;;;;;;;11.32;63.14;99120.69;105448;1281;22556;-68
2022/09/06 01:56:02;;;;;;;3.30;1.50;;;;;;;11.30;63.15;99123.13;105313;1283;137643;-67
2022/09/06 01:59:05;;;;;;;2.60;1.10;;;;;;;11.27;63.09;99120.95;105347;1283;22751;-68
2022/09/06 02:01:46;;;;;;;3.80;1.90;;;;;;;11.24;63.50;99123.97;105225;1283;137663;-68
2022/09/06 02:04:24;;;;;;;2.60;1.70;;;;;;;11.20;63.31;99119.57;105423;1281;22617;-68
2022/09/06 02:06:59;;;;;;;2.50;1.40;;;;;;;11.17;63.60;99119.03;105374;1281;137629;-68
2022/09/06 02:09:33;;;;;;;3.70;1.70;;;;;;;11.13;63.33;99116.70;105394;1281;22841;-68
2022/09/06 02:12:03;;;;;;;3.10;1.70;;;;;;;11.10;63.60;99117.16;105369;1281;137979;-68
2022/09/06 02:14:38;;;;;;;4.00;1.70;;;;;;;11.08;63.51;99115.57;105467;1281;25325;-68
2022/09/06 02:17:12;;;;;;;3.60;1.70;;;;;;;11.06;63.57;99114.92;105466;1281;22563;-68
2022/09/06 02:19:56;;;;;;;3.40;1.70;;;;;;;11.05;63.94;99111.85;105268;1281;137685;-68
2022/09/06 02:22:30;;;;;;;3.90;1.10;;;;;;;11.03;63.88;99110.02;105366;1281;22562;-68
2022/09/06 02:25:00;;;;;;;3.50;1.50;;;;;;;11.02;63.80;99111.11;105351;1281;137705;-68
2022/09/06 02:27:27;;;;;;;;;;;;;;;10.98;64.09;99119.05;105410;1283;22760;-68
2022/09/06 02:29:53;;;;;;;2.10;1.30;;;;;;;10.95;64.10;99118.39;105269;1281;124183;-68
2022/09/06 02:32:25;;;;;;;3.30;1.50;;;;;;;10.93;64.30;99117.02;105381;1281;22567;-68
2022/09/06 02:34:56;;;;;;;4.90;2.10;;;;;;;10.90;63.93;99113.86;105447;1281;24082;-68
2022/09/06 02:37:27;;;;;;;2.70;1.50;;;;;;;10.87;64.46;99109.70;105375;1281;137896;-68
2022/09/06 02:39:54;;;;;;;3.00;1.50;;;;;;;10.83;64.53;99107.83;105376;1281;24279;-68
2022/09/06 02:42:24;;;;;;;3.50;1.60;;;;;;;10.79;64.69;99108.48;105364;1281;137896;-68
2022/09/06 02:44:50;;;;;;;2.10;1.40;;;;;;;10.77;65.17;99110.34;105438;1280;24325;-68
2022/09/06 02:47:17;;;;;;;4.70;1.90;;;;;;;10.74;65.20;99103.25;105432;1281;22566;-68
2022/09/06 02:49:44;;;;;;;4.50;2.10;;;;;;;10.73;65.28;99101.46;105286;1281;138331;-68
2022/09/06 02:52:11;;;;;;;3.60;1.60;;;;;;;10.73;65.12;99100.80;105380;1281;24281;-68
2022/09/06 02:54:38;;;;;;;3.10;1.90;;;;;;;10.72;65.06;99101.34;105370;1281;137718;-68
2022/09/06 02:57:05;;;;;;;4.10;1.60;;;;;;;10.72;65.14;99101.66;105410;1281;22760;-68
2022/09/06 02:59:32;;;;;;;2.90;1.50;;;;;;;10.72;65.25;99100.23;105388;1281;23961;-68
2022/09/06 03:01:58;;;;;;;5.00;1.70;;;;;;;10.72;65.44;99099.09;105300;1281;137703;-68
2022/09/06 03:04:25;;;;;;;3.30;1.90;;;;;;;10.70;65.41;99100.23;105415;1281;22583;-68
2022/09/06 03:06:52;;;;;;;2.60;1.40;;;;;;;10.68;65.44;99100.93;105332;1281;137529;-68
2022/09/06 03:09:19;;;;;;;2.60;1.60;;;;;;;10.66;65.34;99099.03;105374;1281;24287;-68
2022/09/06 03:11:46;;;;;;;4.10;1.60;;;;;;;10.62;65.47;99095.48;105287;1281;138240;-68
2022/09/06 03:14:15;;;;;;;3.80;1.30;;;;;;;10.58;65.55;99093.02;105432;1281;25307;-68
2022/09/06 03:16:42;;;;;;;3.70;1.50;;;;;;;10.56;65.82;99094.23;105484;1281;25346;-68
2022/09/06 03:19:08;;;;;;;3.40;1.50;;;;;;;10.54;66.10;99092.15;105331;1281;138108;-68
2022/09/06 03:21:35;;;;;;;7.20;1.70;;;;;;;10.53;65.98;99089.99;105533;1281;25246;-68
2022/09/06 03:24:02;;;;;;;2.90;1.60;;;;;;;10.52;66.17;99092.48;105294;1281;138172;-68
2022/09/06 03:26:29;;;;;;;4.70;1.60;;;;;;;10.50;66.24;99093.47;105144;1283;25318;-68
2022/09/06 03:28:56;;;;;;;4.00;1.60;;;;;;;10.47;66.25;99094.24;105511;1280;22578;-68
2022/09/06 03:31:23;;;;;;;4.00;1.80;;;;;;;10.45;66.43;99093.31;105343;1281;137752;-68
2022/09/06 03:33:49;;;;;;;2.40;1.60;;;;;;;10.44;66.54;99096.52;105528;1280;22633;-68
2022/09/06 03:36:17;;;;;;;2.90;1.70;;;;;;;10.42;66.52;99097.65;105501;1281;137848;-68
2022/09/06 03:38:44;;;;;;;3.50;1.80;;;;;;;10.40;66.30;99092.79;105509;1280;22583;-68
2022/09/06 03:41:10;;;;;;;4.70;1.90;;;;;;;10.37;66.51;99089.19;105531;1281;23930;-68
2022/09/06 03:43:37;;;;;;;6.30;2.10;;;;;;;10.34;66.64;99091.15;105434;1281;137813;-68
2022/09/06 03:46:04;;;;;;;3.70;1.70;;;;;;;10.29;66.56;99092.84;105430;1281;22559;-68
2022/09/06 03:48:31;;;;;;;6.40;2.20;;;;;;;10.26;66.81;99093.71;105287;1280;137707;-68
2022/09/06 03:51:00;;;;;;;5.60;2.00;;;;;;;10.23;67.09;99088.52;105362;1281;25252;-68
2022/09/06 03:53:28;;;;;;;4.40;1.70;;;;;;;10.23;67.11;99090.91;105542;1281;22744;-68
2022/09/06 03:55:57;;;;;;;3.50;1.40;;;;;;;10.21;66.89;99089.84;105361;1281;138578;-68
2022/09/06 03:58:33;;;;;;;3.60;1.70;;;;;;;10.22;66.90;99087.98;105405;1283;22558;-68
2022/09/06 04:01:07;;;;;;;2.50;1.80;;;;;;;10.21;67.19;99086.65;105280;1283;138563;-68
2022/09/06 04:03:38;;;;;;;4.50;1.90;;;;;;;10.20;67.02;99083.65;105438;1283;27227;-68
2022/09/06 04:06:06;;;;;;;3.50;1.60;;;;;;;10.20;67.32;99085.76;105352;1283;138172;-68
2022/09/06 04:08:34;;;;;;;3.00;1.60;;;;;;;10.20;67.37;99087.46;105376;1281;25404;-68
2022/09/06 04:11:01;;;;;;;4.20;1.40;;;;;;;10.21;67.43;99085.73;105381;1281;25356;-68
2022/09/06 04:13:28;;;;;;;3.00;1.60;;;;;;;10.20;67.23;99084.36;105364;1281;137655;-68
2022/09/06 04:15:56;;;;;;;4.10;1.60;;;;;;;10.19;67.24;99089.83;106275;1280;23324;-68
2022/09/06 04:18:25;;;;;;;;;;;;;;;10.17;67.29;99095.36;105848;1280;138052;-69
2022/09/06 04:20:54;;;;;;;4.90;2.40;;;;;;;10.15;67.54;99093.77;105920;1281;23982;-68
2022/09/06 04:23:24;;;;;;;4.30;1.50;;;;;;;10.12;67.62;99095.77;105646;1280;25251;-68
2022/09/06 04:25:53;;;;;;;2.70;1.70;;;;;;;10.10;67.39;99094.06;105795;1280;139921;-68
2022/09/06 04:28:21;;;;;;;5.70;1.80;;;;;;;10.11;67.54;99095.23;105481;1281;24379;-69
2022/09/06 04:30:56;;;;;;;4.60;1.70;;;;;;;10.14;67.88;99094.61;105386;1281;138275;-68
2022/09/06 04:33:25;;;;;;;5.50;2.30;;;;;;;10.17;67.85;99091.14;105461;1281;22550;-69
2022/09/06 04:35:57;;;;;;;4.10;1.90;;;;;;;10.21;67.86;99091.85;105441;1281;137789;-68
2022/09/06 04:38:25;;;;;;;5.70;2.10;;;;;;;10.23;67.79;99092.45;105442;1281;22578;-68
2022/09/06 04:40:54;;;;;;;4.50;2.00;;;;;;;10.25;67.70;99093.15;105374;1281;22534;-68
2022/09/06 04:43:21;;;;;;;7.30;2.40;;;;;;;10.26;67.70;99095.63;105295;1281;137746;-68
2022/09/06 04:45:48;;;;;;;6.60;3.00;;;;;;;10.28;67.74;99095.67;105446;1281;22577;-68
2022/09/06 04:48:15;;;;;;;4.20;1.90;;;;;;;10.28;68.01;99095.30;105247;1283;137815;-68
2022/09/06 04:50:42;;;;;;;4.70;1.80;;;;;;;10.29;67.78;99099.09;105310;1283;23895;-70
2022/09/06 04:53:12;;;;;;;4.10;1.80;;;;;;;10.30;67.82;99100.16;105360;1283;22535;-68
2022/09/06 04:55:38;;;;;;;5.00;1.80;;;;;;;10.31;67.83;99096.65;105303;1281;137589;-68
2022/09/06 04:58:06;;;;;;;3.80;1.90;;;;;;;10.33;67.61;99096.47;105577;1281;24315;-69
2022/09/06 05:00:35;;;;;;;4.90;1.90;;;;;;;10.37;68.03;99096.60;105336;1281;138373;-68
2022/09/06 05:03:02;;;;;;;5.40;2.30;;;;;;;10.41;67.76;99091.64;105434;1281;22550;-68
2022/09/06 05:05:29;;;;;;;3.40;1.80;;;;;;;10.47;67.56;99095.88;105902;1281;24208;-69
2022/09/06 05:07:56;;;;;;;4.80;1.60;;;;;;;10.52;67.52;99098.14;105934;1280;137650;-68
2022/09/06 05:10:23;;;;;;;3.80;2.00;;;;;;;10.55;67.46;99095.04;105385;1280;23922;-68
2022/09/06 05:12:51;;;;;;;3.60;1.70;;;;;;;10.59;67.47;99094.27;105319;1281;137782;-68
2022/09/06 05:15:20;;;;;;;2.90;1.70;;;;;;;10.63;67.54;99093.45;105956;1280;22557;-68
2022/09/06 05:17:47;;;;;;;5.50;1.80;;;;;;;10.67;67.05;99094.16;105407;1281;137924;-68
2022/09/06 05:20:15;;;;;;;4.10;2.30;;;;;;;10.70;66.92;99091.20;105273;1281;24429;-68
2022/09/06 05:22:51;;;;;;;5.20;1.80;;;;;;;10.73;67.04;99092.23;105514;1281;25360;-68
2022/09/06 05:25:18;;;;;;;3.90;1.80;;;;;;;10.74;67.06;99096.37;105405;1281;137639;-68
2022/09/06 05:27:45;;;;;;;5.10;2.10;;;;;;;10.79;66.86;99100.37;105588;1281;22573;-68
2022/09/06 05:30:13;;;;;;;4.80;2.10;;;;;;;10.83;67.00;99096.77;105385;1281;140002;-68
2022/09/06 05:32:40;;;;;;;4.20;2.00;;;;;;;10.88;66.94;99098.12;105546;1280;25249;-68
2022/09/06 05:35:07;;;;;;;5.90;2.20;;;;;;;10.95;67.09;99102.60;105458;1281;25311;-68
2022/09/06 05:37:34;;;;;;;6.30;1.80;;;;;;;11.01;66.82;99105.42;105512;1280;137644;-67
2022/09/06 05:40:01;;;;;;;6.20;2.30;;;;;;;11.07;66.99;99109.20;105736;1280;22572;-68
2022/09/06 05:42:28;;;;;;;9.20;2.40;;;;;;;11.13;66.77;99106.17;105793;1280;138165;-68
2022/09/06 05:45:01;;;;;;;4.00;2.30;;;;;;;11.20;66.82;99109.80;105723;1279;22565;-67
2022/09/06 05:47:29;;;;;;;5.90;2.40;;;;;;;11.26;66.85;99104.98;105401;1280;22556;-68
2022/09/06 05:49:56;;;;;;;4.90;2.70;;;;;;;11.31;66.83;99114.98;105312;1280;138085;-68
2022/09/06 05:52:23;;;;;;;4.80;2.00;;;;;;;11.36;67.31;99118.77;105411;1280;22555;-68
2022/09/06 05:54:51;;;;;;;3.60;2.10;;;;;;;11.41;66.69;99117.41;105380;1280;137762;-68
2022/09/06 05:57:18;;;;;;;4.40;2.30;;;;;;;11.48;66.91;99119.28;105375;1281;25424;-68
2022/09/06 05:59:45;;;;;;;4.00;2.10;;;;;;;11.54;66.64;99118.45;105322;1281;25349;-69
2022/09/06 06:02:12;;;;;;;6.50;2.60;;;;;;;11.63;66.68;99115.34;105406;1280;22577;-68
2022/09/06 06:04:38;;;;;;;7.70;2.90;;;;;;;11.71;66.75;99116.66;105810;1280;22545;-68
2022/09/06 06:07:05;;;;;;;9.40;2.80;;;;;;;11.78;66.41;99108.70;105312;1280;137641;-68
2022/09/06 06:09:32;;;;;;;6.00;2.70;;;;;;;11.83;66.15;99113.69;105429;1280;24088;-68
2022/09/06 06:11:59;;;;;;;8.00;2.90;;;;;;;11.87;66.34;99115.04;105239;1280;138301;-68
2022/09/06 06:14:26;;;;;;;4.80;2.90;;;;;;;11.90;66.01;99113.88;105413;1281;25324;-68
2022/09/06 06:16:53;;;;;;;8.00;2.90;;;;;;;11.93;66.09;99113.20;105385;1281;24025;-68
2022/09/06 06:19:21;;;;;;;6.20;3.00;;;;;;;11.97;65.96;99118.09;105289;1281;138345;-68
2022/09/06 06:21:48;;;;;;;7.60;2.90;;;;;;;12.06;66.06;99114.36;105415;1281;22891;-69
2022/09/06 06:24:15;;;;;;;9.80;3.30;;;;;;;12.15;66.25;99114.95;105299;1281;138070;-68
2022/09/06 06:26:42;;;;;;;7.40;3.20;;;;;;;12.25;66.36;99117.89;105439;1280;23122;-67
2022/09/06 06:29:09;;;;;;;10.40;3.10;;;;;;;12.35;65.90;99119.59;106362;1280;22643;-68
2022/09/06 06:31:37;;;;;;;4.20;2.50;;;;;;;12.48;65.92;99113.23;105610;1280;137666;-68
2022/09/06 06:34:04;;;;;;;6.90;3.30;;;;;;;12.72;66.34;99112.67;105512;1280;25213;-68
2022/09/06 06:36:34;;;;;;;10.20;3.20;;;;;;;12.91;65.58;99107.48;105460;1280;138591;-68
2022/09/06 06:39:05;;;;;;;;;;;;;;;13.08;65.53;99106.70;105448;1281;22571;-69
2022/09/06 06:41:33;;;;;;;5.00;2.60;;;;;;;13.22;65.27;99102.69;105375;1280;22742;-68
2022/09/06 06:44:02;;;;;;;10.50;4.10;;;;;;;13.34;64.59;99103.68;105359;1280;137669;-68
2022/09/06 06:46:33;;;;;;;;;;;;;;;13.56;64.90;99109.20;105942;1280;24269;-67
2022/09/06 06:49:00;;;;;;;7.70;2.60;;;;;;;13.75;63.88;99106.50;105916;1280;123930;-67
2022/09/06 06:51:30;;;;;;;6.20;2.70;;;;;;;13.87;63.51;99108.77;105651;1280;23937;-67
2022/09/06 06:53:57;;;;;;;5.70;2.80;;;;;;;13.96;63.01;99108.02;105516;1280;138524;-68
2022/09/06 06:56:30;;;;;;;5.60;2.70;;;;;;;14.06;63.23;99116.27;105294;1280;24258;-67
2022/09/06 06:59:00;;;;;;;5.90;2.60;;;;;;;14.18;63.17;99119.06;105610;1280;24260;-67
2022/09/06 07:01:30;;;;;;;5.20;2.40;;;;;;;14.31;63.44;99123.09;105253;1280;137839;-70
2022/09/06 07:03:57;;;;;;;7.40;2.90;;;;;;;14.40;63.04;99117.34;105684;1281;22597;-69
2022/09/06 07:06:28;;;;;;;6.00;2.70;;;;;;;14.47;61.49;99117.09;105614;1281;138334;-68
2022/09/06 07:08:57;;;;;;;4.10;2.70;;;;;;;14.53;60.66;99116.41;105969;1280;25312;-67
2022/09/06 07:11:24;;;;;;;3.40;2.50;;;;;;;14.59;60.43;99114.09;105580;1280;22563;-67
2022/09/06 07:13:51;;;;;;;8.40;2.80;;;;;;;14.63;60.67;99110.98;105918;1280;137748;-67
2022/09/06 07:16:23;;;;;;;4.60;2.60;;;;;;;14.70;60.66;99107.77;106224;1280;24281;-67
2022/09/06 07:18:52;;;;;;;5.10;2.50;;;;;;;14.80;60.08;99107.11;106003;1280;137679;-67
2022/09/06 07:21:25;;;;;;;4.80;2.60;;;;;;;14.88;59.68;99109.73;106178;1280;22609;-67
2022/09/06 07:23:53;;;;;;;5.30;2.60;;;;;;;15.00;59.70;99109.48;106216;1280;138041;-67
2022/09/06 07:26:26;;;;;;;3.80;2.40;;;;;;;15.11;59.77;99112.50;106051;1280;24277;-67
2022/09/06 07:28:56;;;;;;;9.00;2.90;;;;;;;15.22;58.86;99111.34;105581;1280;22705;-67
2022/09/06 07:31:23;;;;;;;4.90;2.80;;;;;;;15.31;58.83;99113.30;105417;1280;137774;-66
2022/09/06 07:33:52;;;;;;;5.20;2.80;;;;;;;15.41;58.16;99111.73;106213;1280;22535;-67
2022/09/06 07:36:19;;;;;;;6.30;2.90;;;;;;;15.48;57.99;99113.90;106015;1283;137896;-68
2022/09/06 07:38:50;;;;;;;4.70;2.40;;;;;;;15.59;57.84;99117.39;105649;1282;25247;-69
2022/09/06 07:41:18;;;;;;;4.10;2.80;;;;;;;15.70;57.63;99119.30;105472;1283;22601;-69
2022/09/06 07:43:46;;;;;;;5.80;3.50;;;;;;;15.75;56.93;99120.51;105694;1283;139003;-68
2022/09/06 07:46:16;;;;;;;3.50;2.40;;;;;;;15.81;56.98;99123.58;105702;1280;24128;-68
2022/09/06 07:48:45;;;;;;;4.90;2.90;;;;;;;15.91;57.03;99123.43;105820;1280;138285;-68
2022/09/06 07:51:15;;;;;;;;;;;;;;;16.02;56.95;99117.91;105931;1281;22715;-68
2022/09/06 07:53:49;;;;;;;6.70;2.90;;;;;;;16.17;56.88;99118.61;106233;1280;25353;-69
2022/09/06 07:56:18;;;;;;;10.40;2.70;;;;;;;16.31;56.79;99120.17;105568;1280;22566;-68
2022/09/06 07:58:45;;;;;;;12.20;3.30;;;;;;;16.38;56.01;99120.27;106005;1280;25154;-69
2022/09/06 08:01:33;;;;;;;7.30;3.20;;;;;;;16.46;55.68;99121.58;106146;1280;137761;-69
2022/09/06 08:04:01;;;;;;;7.10;2.90;;;;;;;16.49;55.35;99119.55;105627;1280;25428;-68
2022/09/06 08:06:30;;;;;;;4.80;2.40;;;;;;;16.47;55.24;99118.90;105695;1280;138385;-68
2022/09/06 08:08:57;;;;;;;16.30;3.40;;;;;;;16.54;54.89;99115.89;105851;1281;22882;-67
2022/09/06 08:11:27;;;;;;;7.10;2.90;;;;;;;16.64;54.90;99115.27;105888;1281;22543;-67
2022/09/06 08:13:55;;;;;;;5.50;2.70;;;;;;;16.71;55.16;99113.20;105705;1280;138047;-67
2022/09/06 08:16:27;;;;;;;6.40;2.80;;;;;;;16.79;55.61;99114.45;105661;1280;23062;-67
2022/09/06 08:18:56;;;;;;;5.80;2.60;;;;;;;16.89;55.51;99107.25;106252;1280;137684;-67
2022/09/06 08:21:25;;;;;;;9.00;2.90;;;;;;;16.99;55.17;99113.17;105715;1280;24435;-67
2022/09/06 08:23:56;;;;;;;5.10;2.50;;;;;;;17.08;54.19;99111.81;105661;1281;138277;-68
2022/09/06 08:26:25;;;;;;;6.90;2.20;;;;;;;17.17;53.51;99111.89;105626;1280;24715;-67
2022/09/06 08:28:53;;;;;;;7.30;2.40;;;;;;;17.24;53.14;99109.91;105626;1280;24425;-67
2022/09/06 08:31:20;;;;;;;7.50;2.40;;;;;;;17.29;53.27;99107.13;105391;1283;137665;-67
2022/09/06 08:33:48;;;;;;;4.00;2.30;;;;;;;17.35;53.17;99102.50;105626;1280;25478;-66
2022/09/06 08:36:17;;;;;;;5.40;2.30;;;;;;;17.43;53.22;99093.86;105345;1280;137797;-67
2022/09/06 08:38:47;;;;;;;4.70;2.20;;;;;;;17.57;52.97;99095.74;105399;1281;22550;-67
2022/09/06 08:41:20;;;;;;;3.90;2.10;;;;;;;17.73;52.86;99093.70;105405;1281;22874;-67
2022/09/06 08:43:55;;;;;;;3.70;2.10;;;;;;;17.89;52.09;99089.91;105126;1281;137694;-67
2022/09/06 08:46:31;;;;;;;5.40;2.40;;;;;;;18.06;51.71;99091.10;105569;1280;22589;-67
2022/09/06 08:48:58;;;;;;;5.20;2.10;;;;;;;18.22;50.76;99094.70;105879;1280;137856;-67
2022/09/06 08:51:56;;;;;;;5.40;1.90;;;;;;;18.29;50.30;99093.96;105808;1280;25252;-67
2022/09/06 08:54:30;;;;;;;6.30;1.80;;;;;;;18.27;49.09;99093.75;105347;1280;137812;-67
2022/09/06 08:56:57;;;;;;;3.70;1.70;;;;;;;18.25;48.84;99091.49;105518;1280;22607;-67
2022/09/06 08:59:23;;;;;;;6.20;1.60;;;;;;;18.25;49.13;99091.44;105635;1280;24274;-67
2022/09/06 09:01:58;;;;;;;4.30;1.80;;;;;;;18.26;48.78;99095.52;105442;1280;137631;-67
2022/09/06 09:04:29;;;;;;;3.60;1.80;;;;;;;18.37;48.93;99097.52;105479;1280;24278;-67
2022/09/06 09:07:20;;;;;;;7.90;1.90;;;;;;;18.52;48.15;99093.77;105279;1280;137848;-67
2022/09/06 09:09:49;;;;;;;3.50;1.90;;;;;;;18.68;47.90;99092.94;105459;1280;22565;-67
2022/09/06 09:12:21;;;;;;;7.80;1.80;;;;;;;18.83;48.33;99092.77;105350;1280;137896;-67
2022/09/06 09:14:52;;;;;;;5.50;1.50;;;;;;;19.01;48.31;99079.38;105482;1280;22699;-67
2022/09/06 09:17:30;;;;;;;4.30;1.70;;;;;;;19.20;48.13;99074.79;105370;1280;22694;-67
2022/09/06 09:19:57;;;;;;;5.80;1.50;;;;;;;19.37;47.13;99073.13;105179;1280;137599;-67
2022/09/06 09:22:24;;;;;;;8.30;1.50;;;;;;;19.50;46.78;99064.00;105342;1280;22767;-67
2022/09/06 09:24:56;;;;;;;;;;;;;;;19.62;45.88;99063.08;105456;1280;137880;-67
2022/09/06 09:27:26;;;;;;;4.10;1.80;;;;;;;19.71;45.60;99062.99;105417;1280;22538;-67
2022/09/06 09:29:52;;;;;;;6.30;1.60;;;;;;;19.82;45.33;99063.36;105317;1281;137895;-67
2022/09/06 09:32:39;;;;;;;5.00;1.70;;;;;;;19.93;44.95;99057.50;105425;1281;22543;-67
2022/09/06 09:35:32;;;;;;;2.60;1.40;;;;;;;20.04;44.05;99052.53;105854;1283;22591;-67
2022/09/06 09:38:13;;;;;;;3.00;1.40;;;;;;;20.16;44.71;99053.73;105540;1281;137868;-67
2022/09/06 09:40:49;;;;;;;6.90;1.80;;;;;;;20.29;44.93;99050.64;106275;1281;24111;-67
2022/09/06 09:43:25;;;;;;;6.00;1.40;;;;;;;20.42;44.18;99044.13;105815;1280;139663;-67
2022/09/06 09:46:13;;;;;;;7.70;1.30;;;;;;;20.57;43.77;99039.02;105490;1280;24271;-67
2022/09/06 09:49:03;;;;;;;4.90;1.10;;;;;;;20.73;43.45;99033.90;105491;1280;137751;-67
2022/09/06 09:51:33;;;;;;;4.60;1.30;;;;;;;20.87;42.22;99026.22;105530;1280;24122;-67
2022/09/06 09:54:06;;;;;;;4.90;1.70;;;;;;;20.96;41.66;99021.00;105500;1280;137966;-67
2022/09/06 09:56:36;;;;;;;4.00;1.30;;;;;;;21.05;41.85;99014.77;105483;1280;25309;-67
2022/09/06 09:59:26;;;;;;;6.50;1.40;;;;;;;21.17;41.46;99015.19;105408;1281;22678;-67
2022/09/06 10:01:59;;;;;;;8.20;1.40;;;;;;;21.28;40.46;99009.76;105302;1281;137783;-67
2022/09/06 10:04:43;;;;;;;8.20;2.30;;;;;;;21.43;41.12;99006.07;105462;1281;24281;-67
2022/09/06 10:07:21;;;;;;;3.90;1.50;;;;;;;21.58;40.67;99009.66;105301;1281;137867;-67
2022/09/06 10:10:03;;;;;;;4.30;1.40;;;;;;;21.52;39.49;99011.08;105436;1281;24930;-66
2022/09/06 10:12:39;;;;;;;4.80;1.20;;;;;;;21.54;38.96;99007.52;105317;1281;138300;-67
2022/09/06 10:15:08;;;;;;;4.40;1.30;;;;;;;21.54;39.10;99002.86;105428;1281;22581;-67
2022/09/06 10:17:42;;;;;;;4.20;1.50;;;;;;;21.46;39.03;99000.65;105305;1281;25522;-67
2022/09/06 10:20:13;;;;;;;3.00;1.20;;;;;;;21.56;39.26;98998.83;105309;1281;137516;-66
2022/09/06 10:23:08;;;;;;;3.80;1.50;;;;;;;21.73;39.05;98991.42;105472;1281;24296;-67
2022/09/06 10:25:38;;;;;;;3.30;1.30;;;;;;;21.74;38.83;98985.08;105333;1280;138134;-67
2022/09/06 10:28:33;;;;;;;4.10;1.70;;;;;;;21.70;38.69;98987.92;105909;1281;22586;-67
2022/09/06 10:31:25;;;;;;;4.40;1.30;;;;;;;21.61;38.71;98988.09;105655;1280;137810;-67
2022/09/06 10:34:17;;;;;;;5.80;1.30;;;;;;;21.49;38.91;98989.02;106266;1280;25388;-67
2022/09/06 10:37:02;;;;;;;4.80;1.00;;;;;;;21.39;39.05;98980.80;105347;1281;138102;-67
2022/09/06 10:39:53;;;;;;;2.40;1.00;;;;;;;21.29;38.85;98977.83;105425;1281;24440;-67
2022/09/06 10:42:26;;;;;;;2.30;1.20;;;;;;;21.15;38.67;98979.11;106486;1281;137819;-67
2022/09/06 10:45:14;;;;;;;5.40;1.50;;;;;;;21.12;39.26;98978.60;105475;1280;22846;-66
2022/09/06 10:48:01;;;;;;;4.50;1.70;;;;;;;21.22;39.73;98977.95;105374;1280;24409;-66
2022/09/06 10:50:52;;;;;;;5.60;1.40;;;;;;;21.35;39.51;98978.05;105292;1280;31666;-66
2022/09/06 10:53:50;;;;;;;2.60;1.20;;;;;;;21.45;39.77;98981.04;104785;1286;24386;-66
2022/09/06 10:56:20;;;;;;;4.80;1.30;;;;;;;21.72;39.34;98976.42;104931;1286;22541;-66
2022/09/06 10:59:22;;;;;;;4.60;1.30;;;;;;;21.97;38.89;98974.66;104801;1286;25300;-66
2022/09/06 11:02:19;;;;;;;3.40;1.20;;;;;;;22.16;38.61;98973.38;104690;1286;137853;-66
2022/09/06 11:04:49;;;;;;;4.60;1.40;;;;;;;22.38;38.42;98974.62;104896;1286;22535;-67
2022/09/06 11:07:30;;;;;;;5.80;1.30;;;;;;;22.59;37.91;98967.55;104679;1286;137828;-69
2022/09/06 11:10:02;;;;;;;7.60;1.20;;;;;;;22.79;37.17;98967.44;105192;1286;22921;-67
2022/09/06 11:12:56;;;;;;;6.00;1.60;;;;;;;22.90;36.73;98966.29;104846;1286;137878;-67
2022/09/06 11:15:27;;;;;;;2.40;1.40;;;;;;;22.95;36.67;98964.10;105031;1286;22709;-66
2022/09/06 11:18:07;;;;;;;3.50;1.20;;;;;;;23.00;36.36;98961.55;104853;1286;138078;-66
2022/09/06 11:20:40;;;;;;;4.90;0.90;;;;;;;23.01;36.33;98958.42;104868;1286;24306;-66
2022/09/06 11:23:19;;;;;;;2.10;1.00;;;;;;;22.99;36.96;98957.80;104834;1287;22554;-66
2022/09/06 11:26:17;;;;;;;4.10;1.40;;;;;;;23.02;36.19;98955.29;104708;1287;137838;-66
2022/09/06 11:28:48;;;;;;;1.70;1.30;;;;;;;23.08;36.39;98950.38;104811;1287;24374;-66
2022/09/06 11:31:24;;;;;;;3.30;1.20;;;;;;;23.11;36.30;98942.98;105357;1281;137806;-66
2022/09/06 11:34:09;;;;;;;2.50;1.40;;;;;;;23.28;36.73;98947.52;106138;1280;22622;-67
2022/09/06 11:36:55;;;;;;;6.10;1.40;;;;;;;23.38;36.29;98944.77;105354;1280;137659;-66
2022/09/06 11:39:32;;;;;;;5.60;1.60;;;;;;;23.48;36.27;98941.56;105420;1280;22561;-67
2022/09/06 11:42:00;;;;;;;4.00;1.40;;;;;;;23.32;36.22;98939.09;105134;1281;138013;-66
2022/09/06 11:44:52;;;;;;;4.20;1.30;;;;;;;23.15;35.86;98934.26;105414;1280;25256;-66
2022/09/06 11:47:38;;;;;;;1.90;1.20;;;;;;;23.05;36.07;98929.77;105321;1280;23966;-66